Time;durP1;ratioP1;P1;durP2;ratioP2;P2;SDS_P1;SDS_P2;PMS_P1;PMS_P2;Temp;Humidity;BMP_temperature;BMP_pressure;BME280_temperature;BME280_humidity;BME280_pressure;Samples;Min_cycle;Max_cycle;Signal;HPM_P1;HPM_P2
2023/03/15 00:00:48;;;;;;;8.15;3.85;;;2.10;99.90;;;;;;4986294;28;20051;-76
2023/03/15 00:03:15;;;;;;;15.43;4.60;;;2.10;99.90;;;;;;4986605;28;20138;-76
2023/03/15 00:05:45;;;;;;;17.95;4.57;;;2.10;99.90;;;;;;4987092;28;20475;-76
2023/03/15 00:08:11;;;;;;;9.27;3.40;;;2.10;99.90;;;;;;4982487;28;20416;-76
2023/03/15 00:10:41;;;;;;;8.32;4.15;;;2.10;99.90;;;;;;4986486;28;20109;-77
2023/03/15 00:13:08;;;;;;;12.18;3.63;;;2.10;99.90;;;;;;4968838;28;20140;-77
2023/03/15 00:15:34;;;;;;;8.48;3.13;;;2.10;99.90;;;;;;4970062;28;20062;-77
2023/03/15 00:18:02;;;;;;;15.73;4.45;;;2.10;99.90;;;;;;4970143;28;20053;-76
2023/03/15 00:20:28;;;;;;;12.70;4.20;;;2.10;99.90;;;;;;4986581;28;20038;-76
2023/03/15 00:22:54;;;;;;;16.27;3.50;;;2.20;99.90;;;;;;4986094;28;20059;-77
2023/03/15 00:25:20;;;;;;;9.48;3.55;;;2.20;99.90;;;;;;4970151;28;20467;-76
2023/03/15 00:27:45;;;;;;;9.57;2.97;;;2.20;99.90;;;;;;4985765;28;20444;-76
2023/03/15 00:30:11;;;;;;;14.02;4.00;;;2.10;99.90;;;;;;4965583;28;20043;-77
2023/03/15 00:32:37;;;;;;;6.32;2.92;;;2.10;99.90;;;;;;4969377;28;20054;-76
2023/03/15 00:35:03;;;;;;;12.40;3.42;;;2.20;99.90;;;;;;4970999;28;20082;-76
2023/03/15 00:37:30;;;;;;;8.77;2.95;;;2.20;99.90;;;;;;4973366;28;20488;-76
2023/03/15 00:39:55;;;;;;;7.00;2.30;;;2.20;99.90;;;;;;4985302;28;20511;-76
2023/03/15 00:42:26;;;;;;;13.02;4.18;;;2.20;99.90;;;;;;4969017;28;20043;-76
2023/03/15 00:44:53;;;;;;;13.98;3.33;;;2.20;99.90;;;;;;4969752;28;20113;-76
2023/03/15 00:47:18;;;;;;;11.93;3.17;;;2.20;99.90;;;;;;4968971;28;20062;-76
2023/03/15 00:49:45;;;;;;;12.50;3.22;;;2.20;99.90;;;;;;4986218;28;20050;-76
2023/03/15 00:52:11;;;;;;;12.48;3.83;;;2.20;99.90;;;;;;4969448;28;20124;-76
2023/03/15 00:54:37;;;;;;;11.32;3.00;;;2.20;99.90;;;;;;4968241;28;20043;-76
2023/03/15 00:57:03;;;;;;;9.35;2.88;;;2.30;99.90;;;;;;4969108;28;20053;-76
2023/03/15 00:59:34;;;;;;;10.00;2.95;;;2.30;99.90;;;;;;4985486;28;20039;-76
2023/03/15 01:02:04;;;;;;;11.73;3.15;;;2.30;99.90;;;;;;4969739;28;20078;-76
2023/03/15 01:04:30;;;;;;;8.13;2.65;;;2.40;99.90;;;;;;4969197;28;20046;-76
2023/03/15 01:06:57;;;;;;;14.05;3.35;;;2.30;99.90;;;;;;4969291;28;20054;-76
2023/03/15 01:09:23;;;;;;;9.40;3.35;;;2.30;99.90;;;;;;4969090;28;20523;-76
2023/03/15 01:11:48;;;;;;;6.68;3.55;;;2.40;99.90;;;;;;4968788;28;20082;-76
2023/03/15 01:14:14;;;;;;;13.27;4.05;;;2.30;99.90;;;;;;4985022;28;20078;-76
2023/03/15 01:16:40;;;;;;;21.95;3.30;;;2.30;99.90;;;;;;4969190;28;20496;-76
2023/03/15 01:19:06;;;;;;;9.48;3.35;;;2.30;99.90;;;;;;4969361;28;20613;-77
2023/03/15 01:21:31;;;;;;;18.77;3.40;;;2.30;99.90;;;;;;4985215;28;20086;-76
2023/03/15 01:23:58;;;;;;;4.60;2.20;;;2.30;99.90;;;;;;4968613;28;20109;-76
2023/03/15 01:26:24;;;;;;;7.72;3.25;;;2.30;99.90;;;;;;4985136;28;20085;-76
2023/03/15 01:28:51;;;;;;;5.93;2.83;;;2.30;99.90;;;;;;4970068;28;20101;-76
2023/03/15 01:31:23;;;;;;;8.90;3.10;;;2.20;99.90;;;;;;4968309;28;20078;-76
2023/03/15 01:33:49;;;;;;;10.38;2.85;;;2.20;99.90;;;;;;4968468;28;20050;-76
2023/03/15 01:36:15;;;;;;;9.20;2.60;;;2.20;99.90;;;;;;4984335;28;20062;-76
2023/03/15 01:38:41;;;;;;;9.65;2.95;;;2.10;99.90;;;;;;4967936;28;20046;-76
2023/03/15 01:41:07;;;;;;;12.98;3.20;;;2.10;99.90;;;;;;4967897;28;20073;-76
2023/03/15 01:43:33;;;;;;;20.85;3.45;;;2.10;99.90;;;;;;4967912;28;20050;-77
2023/03/15 01:45:58;;;;;;;7.07;2.53;;;2.00;99.90;;;;;;4968154;28;20049;-76
2023/03/15 01:48:35;;;;;;;19.88;4.18;;;2.00;99.90;;;;;;4985052;28;20062;-76
2023/03/15 01:51:23;;;;;;;7.93;2.83;;;2.00;99.90;;;;;;4968129;28;20043;-76
2023/03/15 01:53:59;;;;;;;7.50;3.10;;;1.90;99.90;;;;;;4967544;28;20061;-76
2023/03/15 01:56:26;;;;;;;6.78;3.10;;;1.90;99.90;;;;;;4965165;28;20441;-76
2023/03/15 01:58:54;;;;;;;10.95;2.47;;;1.80;99.90;;;;;;4968883;28;20046;-76
2023/03/15 02:01:20;;;;;;;4.88;2.38;;;1.80;99.90;;;;;;4968169;28;20066;-76
2023/03/15 02:03:51;;;;;;;7.57;3.05;;;1.80;99.90;;;;;;4967991;28;20085;-76
2023/03/15 02:06:19;;;;;;;14.15;3.22;;;1.90;99.90;;;;;;4968099;28;20050;-76
2023/03/15 02:08:59;;;;;;;3.27;2.40;;;1.90;99.90;;;;;;4968444;28;20093;-76
2023/03/15 02:11:26;;;;;;;10.40;3.13;;;1.90;99.90;;;;;;4968230;28;20385;-76
2023/03/15 02:13:53;;;;;;;9.98;2.58;;;1.80;99.90;;;;;;4967605;28;20110;-76
2023/03/15 02:16:22;;;;;;;12.55;3.22;;;1.90;99.90;;;;;;4967961;28;20114;-76
2023/03/15 02:18:47;;;;;;;;;;;1.90;99.90;;;;;;4968251;28;20043;-76
2023/03/15 02:21:22;;;;;;;7.60;2.70;;;1.90;99.90;;;;;;4967800;28;20517;-76
2023/03/15 02:24:12;;;;;;;8.25;2.92;;;1.90;99.90;;;;;;4967686;28;20121;-76
2023/03/15 02:26:58;;;;;;;9.68;2.83;;;1.80;99.90;;;;;;4937630;28;20051;-76
2023/03/15 02:29:27;;;;;;;10.35;2.83;;;1.80;99.90;;;;;;4966924;28;20578;-76
2023/03/15 02:31:54;;;;;;;6.45;2.38;;;1.80;99.90;;;;;;4967840;28;20046;-76
2023/03/15 02:34:24;;;;;;;10.52;2.95;;;1.80;99.90;;;;;;4967415;28;20059;-76
2023/03/15 02:36:50;;;;;;;6.07;2.35;;;1.70;99.90;;;;;;4967174;28;20138;-76
2023/03/15 02:39:18;;;;;;;14.02;3.15;;;1.70;99.90;;;;;;4967963;28;20054;-76
2023/03/15 02:41:56;;;;;;;9.10;2.95;;;1.70;99.90;;;;;;4967577;28;20078;-76
2023/03/15 02:44:33;;;;;;;12.85;3.33;;;1.60;99.90;;;;;;4967591;28;20126;-76
2023/03/15 02:47:03;;;;;;;7.78;2.50;;;1.60;99.90;;;;;;4967229;28;20043;-76
2023/03/15 02:49:34;;;;;;;9.10;2.75;;;1.60;99.90;;;;;;4968044;28;21436;-76
2023/03/15 02:52:00;;;;;;;10.35;2.83;;;1.50;99.90;;;;;;4967076;28;20042;-76
2023/03/15 02:54:25;;;;;;;9.25;2.70;;;1.50;99.90;;;;;;4969217;28;20133;-76
2023/03/15 02:56:52;;;;;;;12.20;2.83;;;1.50;99.90;;;;;;4972364;28;20074;-76
2023/03/15 02:59:17;;;;;;;10.55;3.88;;;1.40;99.90;;;;;;4970153;28;20055;-76
2023/03/15 03:01:44;;;;;;;8.57;2.60;;;1.40;99.90;;;;;;4970950;28;20673;-76
2023/03/15 03:04:10;;;;;;;26.35;3.25;;;1.40;99.90;;;;;;4971169;28;20077;-76
2023/03/15 03:06:36;;;;;;;7.47;2.97;;;1.30;99.90;;;;;;4987595;28;20491;-76
2023/03/15 03:09:03;;;;;;;9.80;2.67;;;1.30;99.90;;;;;;4987658;28;20043;-76
2023/03/15 03:11:29;;;;;;;6.07;2.90;;;1.30;99.90;;;;;;4971029;28;20125;-76
2023/03/15 03:13:55;;;;;;;11.60;2.95;;;1.30;99.90;;;;;;4987242;28;20038;-76
2023/03/15 03:16:21;;;;;;;9.98;2.78;;;1.30;99.90;;;;;;4987256;28;20133;-76
2023/03/15 03:18:47;;;;;;;16.05;3.40;;;1.20;99.90;;;;;;4965523;28;20081;-76
2023/03/15 03:21:13;;;;;;;16.02;3.38;;;1.20;99.90;;;;;;4966956;28;20492;-76
2023/03/15 03:23:39;;;;;;;7.80;2.78;;;1.20;99.90;;;;;;4970587;28;20055;-76
2023/03/15 03:26:15;;;;;;;8.43;2.78;;;1.10;99.90;;;;;;4988563;28;20043;-76
2023/03/15 03:28:43;;;;;;;14.02;3.20;;;1.20;99.90;;;;;;4970968;28;20084;-76
2023/03/15 03:31:16;;;;;;;13.27;2.80;;;1.10;99.90;;;;;;4970165;28;20051;-76
2023/03/15 03:33:42;;;;;;;10.90;2.90;;;1.10;99.90;;;;;;4971095;28;20572;-76
2023/03/15 03:36:07;;;;;;;9.90;3.17;;;1.10;99.90;;;;;;4986938;28;20054;-76
2023/03/15 03:38:33;;;;;;;8.20;2.15;;;1.00;99.90;;;;;;4971168;28;20043;-76
2023/03/15 03:40:59;;;;;;;13.13;2.55;;;1.00;99.90;;;;;;4970678;28;20133;-76
2023/03/15 03:43:24;;;;;;;11.48;2.65;;;0.90;99.90;;;;;;4970691;28;20047;-76
2023/03/15 03:45:50;;;;;;;5.20;2.17;;;0.90;99.90;;;;;;4986939;28;20213;-76
2023/03/15 03:48:16;;;;;;;15.30;3.15;;;0.90;99.90;;;;;;4986711;28;20144;-76
2023/03/15 03:50:42;;;;;;;11.85;2.47;;;0.90;99.90;;;;;;4987007;28;20285;-76
2023/03/15 03:53:08;;;;;;;14.75;3.13;;;0.80;99.90;;;;;;4970422;28;20109;-76
2023/03/15 03:55:34;;;;;;;9.95;2.80;;;0.80;99.90;;;;;;4970822;28;20154;-76
2023/03/15 03:58:00;;;;;;;7.60;3.10;;;0.80;99.90;;;;;;4986349;28;20559;-76
2023/03/15 04:00:25;;;;;;;15.55;2.75;;;0.80;99.90;;;;;;4970535;28;20488;-76
2023/03/15 04:02:52;;;;;;;14.23;2.28;;;0.70;99.90;;;;;;4969367;28;20043;-76
2023/03/15 04:05:19;;;;;;;14.45;3.20;;;0.80;99.90;;;;;;4969003;28;20054;-76
2023/03/15 04:07:45;;;;;;;16.05;3.47;;;0.70;99.90;;;;;;4966422;28;20043;-76
2023/03/15 04:10:13;;;;;;;9.63;2.55;;;0.70;99.90;;;;;;4967870;28;20058;-75
2023/03/15 04:12:42;;;;;;;8.30;2.60;;;0.70;99.90;;;;;;4967536;28;20083;-75
2023/03/15 04:15:08;;;;;;;6.85;2.45;;;0.70;99.90;;;;;;4971777;28;20087;-75
2023/03/15 04:17:33;;;;;;;12.40;2.80;;;0.70;99.90;;;;;;4969246;28;20086;-74
2023/03/15 04:20:04;;;;;;;7.20;2.60;;;0.70;99.90;;;;;;4970350;28;20094;-75
2023/03/15 04:22:30;;;;;;;10.10;2.78;;;0.60;99.90;;;;;;4969273;28;20047;-75
2023/03/15 04:24:55;;;;;;;8.43;2.78;;;0.60;99.90;;;;;;4969184;28;20046;-75
2023/03/15 04:27:22;;;;;;;12.40;3.08;;;0.60;99.90;;;;;;4969022;28;20385;-75
2023/03/15 04:29:48;;;;;;;10.65;2.95;;;0.60;99.90;;;;;;4969802;28;20050;-75
2023/03/15 04:32:16;;;;;;;12.65;3.90;;;0.50;99.90;;;;;;4984991;28;20696;-75
2023/03/15 04:34:42;;;;;;;7.07;2.45;;;0.50;99.90;;;;;;4969763;28;20148;-75
2023/03/15 04:37:08;;;;;;;10.63;3.20;;;0.50;99.90;;;;;;4985479;28;20051;-74
2023/03/15 04:39:34;;;;;;;6.30;2.55;;;0.50;99.90;;;;;;4985050;28;20047;-75
2023/03/15 04:41:59;;;;;;;8.15;2.65;;;0.40;99.90;;;;;;4969420;28;20050;-75
2023/03/15 04:44:26;;;;;;;9.35;2.70;;;0.40;99.90;;;;;;4985657;28;20050;-75
2023/03/15 04:46:55;;;;;;;6.50;2.58;;;0.40;99.90;;;;;;4969668;28;20062;-76
2023/03/15 04:49:20;;;;;;;14.23;2.70;;;0.40;99.90;;;;;;4968170;28;20049;-75
2023/03/15 04:51:46;;;;;;;9.25;2.85;;;0.40;99.90;;;;;;4969401;28;20047;-75
2023/03/15 04:54:12;;;;;;;4.13;2.28;;;0.40;99.90;;;;;;4982733;28;20055;-75
2023/03/15 04:56:37;;;;;;;8.68;2.40;;;0.30;99.90;;;;;;4969551;28;20696;-75
2023/03/15 04:59:03;;;;;;;10.10;3.05;;;0.30;99.90;;;;;;4985392;28;20488;-75
2023/03/15 05:01:30;;;;;;;9.35;2.97;;;0.30;99.90;;;;;;4985776;28;20137;-75
2023/03/15 05:03:57;;;;;;;8.55;3.00;;;0.30;99.90;;;;;;4969330;28;20046;-75
2023/03/15 05:06:24;;;;;;;11.10;2.33;;;0.30;99.90;;;;;;4985696;28;20041;-75
2023/03/15 05:08:49;;;;;;;12.65;3.00;;;0.30;99.90;;;;;;4969059;28;20050;-75
2023/03/15 05:11:15;;;;;;;11.60;3.55;;;0.30;99.90;;;;;;4969829;28;20651;-75
2023/03/15 05:13:41;;;;;;;12.18;3.20;;;0.20;99.90;;;;;;4984925;28;20054;-75
2023/03/15 05:16:06;;;;;;;9.10;2.65;;;0.20;99.90;;;;;;4967985;28;20058;-75
2023/03/15 05:18:32;;;;;;;10.60;2.33;;;0.20;99.90;;;;;;4984717;28;20460;-74
2023/03/15 05:20:58;;;;;;;15.45;2.25;;;0.20;99.90;;;;;;4960293;28;20077;-74
2023/03/15 05:23:24;;;;;;;8.05;2.30;;;0.20;99.90;;;;;;4968718;28;20125;-74
2023/03/15 05:25:55;;;;;;;13.95;2.42;;;0.20;99.90;;;;;;4971754;28;20066;-74
2023/03/15 05:28:22;;;;;;;7.97;2.22;;;0.20;99.90;;;;;;4968387;28;20153;-74
2023/03/15 05:30:48;;;;;;;13.07;2.58;;;0.20;99.90;;;;;;4968597;28;20042;-74
2023/03/15 05:33:14;;;;;;;6.85;2.13;;;0.20;99.90;;;;;;4984678;28;20781;-74
2023/03/15 05:35:43;;;;;;;11.18;2.95;;;0.20;99.90;;;;;;4984061;28;20047;-74
2023/03/15 05:38:13;;;;;;;10.40;2.58;;;0.20;99.90;;;;;;4968563;28;20077;-74
2023/03/15 05:40:42;;;;;;;13.68;2.72;;;0.20;99.90;;;;;;4967902;28;20054;-74
2023/03/15 05:43:08;;;;;;;6.20;2.42;;;0.20;99.90;;;;;;4963096;28;20039;-74
2023/03/15 05:45:35;;;;;;;15.75;2.95;;;0.20;99.90;;;;;;4968287;28;20101;-74
2023/03/15 05:48:01;;;;;;;9.75;2.33;;;0.20;99.90;;;;;;4969143;28;20043;-74
2023/03/15 05:50:27;;;;;;;9.45;2.50;;;0.20;99.90;;;;;;4968632;28;20159;-74
2023/03/15 05:52:54;;;;;;;9.30;2.70;;;0.20;99.90;;;;;;4968589;28;20848;-74
2023/03/15 05:55:20;;;;;;;10.00;2.58;;;0.30;99.90;;;;;;4970979;28;20072;-74
2023/03/15 05:57:45;;;;;;;8.20;2.95;;;0.30;99.90;;;;;;4968667;28;20643;-74
2023/03/15 06:00:13;;;;;;;6.97;2.88;;;0.40;99.90;;;;;;4967606;28;20077;-74
2023/03/15 06:02:40;;;;;;;14.23;3.47;;;0.50;99.90;;;;;;4984114;28;20061;-74
2023/03/15 06:05:06;;;;;;;6.40;1.90;;;0.70;99.90;;;;;;4961920;28;20085;-74
2023/03/15 06:07:32;;;;;;;6.88;3.05;;;0.90;99.90;;;;;;4968694;28;20134;-74
2023/03/15 06:09:57;;;;;;;4.50;2.83;;;1.20;99.90;;;;;;4962735;28;20568;-74
2023/03/15 06:12:24;;;;;;;8.63;2.58;;;1.50;99.90;;;;;;4968610;28;20049;-74
2023/03/15 06:14:50;;;;;;;8.35;2.83;;;1.90;99.90;;;;;;4967977;28;20038;-74
2023/03/15 06:17:16;;;;;;;7.20;2.67;;;2.20;99.90;;;;;;4966795;28;20046;-74
2023/03/15 06:19:41;;;;;;;10.93;2.97;;;2.50;99.90;;;;;;4967958;28;20041;-73
2023/03/15 06:22:07;;;;;;;7.70;2.83;;;2.60;99.90;;;;;;4969333;28;20113;-74
2023/03/15 06:24:33;;;;;;;9.82;3.65;;;2.50;99.90;;;;;;4970847;28;20887;-74
2023/03/15 06:27:00;;;;;;;8.35;2.80;;;2.20;99.90;;;;;;4970849;28;20088;-74
2023/03/15 06:29:26;;;;;;;12.97;2.93;;;2.00;99.90;;;;;;4990983;28;20046;-74
2023/03/15 06:31:52;;;;;;;9.75;3.42;;;1.80;99.90;;;;;;4986345;28;20407;-74
2023/03/15 06:34:19;;;;;;;12.65;3.40;;;1.70;99.90;;;;;;4970448;28;20053;-74
2023/03/15 06:36:46;;;;;;;11.18;2.92;;;1.70;99.90;;;;;;4970876;28;20419;-74
2023/03/15 06:39:12;;;;;;;6.00;2.80;;;1.70;99.90;;;;;;4970123;28;20508;-74
2023/03/15 06:41:41;;;;;;;10.23;2.67;;;1.70;99.90;;;;;;4987103;28;20043;-74
2023/03/15 06:44:07;;;;;;;8.35;2.20;;;1.80;99.90;;;;;;4986229;28;20124;-75
2023/03/15 06:46:33;;;;;;;9.95;2.80;;;2.00;99.90;;;;;;4968854;28;20113;-75
2023/03/15 06:48:59;;;;;;;5.97;2.80;;;2.40;99.90;;;;;;4986636;28;20059;-75
2023/03/15 06:51:25;;;;;;;7.60;2.65;;;2.50;99.90;;;;;;4970251;28;20054;-75
2023/03/15 06:53:51;;;;;;;12.02;2.58;;;2.60;99.90;;;;;;4970874;28;20114;-75
2023/03/15 06:56:16;;;;;;;18.02;3.75;;;3.50;99.90;;;;;;4987508;28;20559;-74
2023/03/15 06:58:42;;;;;;;6.97;2.28;;;4.40;99.90;;;;;;4985889;28;20046;-75
2023/03/15 07:01:12;;;;;;;5.97;2.38;;;5.30;99.90;;;;;;4965507;28;20080;-75
2023/03/15 07:03:38;;;;;;;7.82;3.28;;;6.00;99.90;;;;;;4985206;28;20097;-75
2023/03/15 07:06:04;;;;;;;9.02;2.50;;;6.60;99.90;;;;;;4986189;28;20046;-75
2023/03/15 07:08:30;;;;;;;4.78;1.98;;;6.70;99.90;;;;;;4986544;28;20518;-75
2023/03/15 07:10:56;;;;;;;5.90;2.28;;;6.70;99.90;;;;;;4987100;28;20123;-75
2023/03/15 07:13:22;;;;;;;4.65;2.25;;;6.70;99.90;;;;;;4973206;28;20050;-75
2023/03/15 07:15:55;;;;;;;12.77;3.17;;;6.80;99.90;;;;;;4971570;28;20054;-74
2023/03/15 07:18:21;;;;;;;11.07;2.58;;;6.60;99.90;;;;;;4987303;28;20050;-74
2023/03/15 07:20:54;;;;;;;11.00;3.08;;;6.50;99.90;;;;;;4988143;28;20517;-74
2023/03/15 07:23:19;;;;;;;8.27;2.33;;;6.40;99.90;;;;;;4970407;28;20084;-75
2023/03/15 07:25:46;;;;;;;10.35;2.65;;;6.30;99.90;;;;;;4991073;28;20050;-75
2023/03/15 07:28:12;;;;;;;4.78;1.92;;;6.10;99.90;;;;;;4987654;28;20462;-76
2023/03/15 07:30:38;;;;;;;6.57;2.35;;;5.90;99.90;;;;;;4969352;28;20046;-76
2023/03/15 07:33:05;;;;;;;7.35;2.78;;;5.70;99.90;;;;;;4971187;28;20038;-75
2023/03/15 07:35:31;;;;;;;8.90;3.20;;;5.70;99.90;;;;;;4968343;28;20088;-75
2023/03/15 07:37:57;;;;;;;7.90;2.10;;;5.70;99.90;;;;;;4967879;28;20078;-75
2023/03/15 07:40:25;;;;;;;5.72;2.45;;;5.60;99.90;;;;;;4970822;28;20054;-75
2023/03/15 07:42:50;;;;;;;8.63;2.30;;;5.50;99.90;;;;;;4984356;28;20063;-75
2023/03/15 07:45:17;;;;;;;8.07;2.67;;;5.40;99.90;;;;;;4987839;28;20679;-75
2023/03/15 07:47:42;;;;;;;15.10;2.40;;;5.30;99.90;;;;;;4971639;28;20165;-75
2023/03/15 07:50:09;;;;;;;3.75;2.40;;;5.20;99.90;;;;;;4989066;28;20573;-76
2023/03/15 07:52:34;;;;;;;13.50;2.83;;;5.10;99.90;;;;;;4992798;28;20108;-76
2023/03/15 07:55:00;;;;;;;14.35;2.42;;;5.10;99.90;;;;;;4970034;28;20505;-76
2023/03/15 07:57:25;;;;;;;10.07;3.08;;;5.00;99.90;;;;;;4969879;28;20085;-76
2023/03/15 07:59:52;;;;;;;10.95;3.13;;;5.00;99.90;;;;;;4990357;28;20057;-76
2023/03/15 08:02:17;;;;;;;14.00;2.70;;;4.90;99.90;;;;;;4973583;28;20515;-76
2023/03/15 08:04:44;;;;;;;4.85;2.05;;;4.80;99.90;;;;;;4989380;28;20057;-76
2023/03/15 08:07:10;;;;;;;11.95;3.00;;;4.90;99.90;;;;;;4990186;28;20451;-76
2023/03/15 08:09:36;;;;;;;10.13;2.60;;;4.90;99.90;;;;;;4987448;28;20054;-76
2023/03/15 08:12:01;;;;;;;9.57;2.22;;;4.90;99.90;;;;;;4990900;28;20046;-76
2023/03/15 08:14:30;;;;;;;11.32;2.75;;;4.90;99.90;;;;;;4973364;28;20042;-76
2023/03/15 08:16:56;;;;;;;;;;;5.00;99.90;;;;;;4990861;28;20046;-76
2023/03/15 08:19:21;;;;;;;7.78;3.22;;;5.00;99.90;;;;;;4976783;28;19922;-77
2023/03/15 08:21:52;;;;;;;11.15;2.60;;;5.10;99.90;;;;;;4995547;28;20034;-76
2023/03/15 08:24:18;;;;;;;8.55;2.80;;;5.20;99.90;;;;;;4971973;28;20586;-76
2023/03/15 08:26:44;;;;;;;11.48;3.08;;;5.30;99.90;;;;;;4967220;28;20492;-76
2023/03/15 08:29:10;;;;;;;7.90;2.40;;;5.40;99.90;;;;;;4956725;28;20054;-76
2023/03/15 08:31:35;;;;;;;11.48;2.60;;;5.50;99.90;;;;;;4984969;28;20046;-77
2023/03/15 08:34:02;;;;;;;6.03;2.33;;;5.60;99.90;;;;;;4989341;28;20054;-77
2023/03/15 08:36:28;;;;;;;15.68;3.38;;;5.60;99.90;;;;;;4973170;28;20129;-77
2023/03/15 08:38:53;;;;;;;15.52;2.92;;;5.70;99.90;;;;;;4972505;28;20133;-77
2023/03/15 08:41:19;;;;;;;6.78;2.58;;;5.70;99.90;;;;;;4974538;28;20153;-76
2023/03/15 08:43:44;;;;;;;9.98;2.05;;;5.70;99.90;;;;;;4971454;28;20462;-77
2023/03/15 08:46:11;;;;;;;7.28;2.78;;;5.80;99.90;;;;;;4989853;28;20560;-76
2023/03/15 08:48:37;;;;;;;13.15;2.72;;;5.80;99.90;;;;;;4973891;28;20499;-76
2023/03/15 08:51:04;;;;;;;15.25;3.53;;;5.90;99.90;;;;;;4990025;28;20081;-76
2023/03/15 08:53:30;;;;;;;11.63;3.58;;;5.90;99.90;;;;;;4970449;28;20038;-77
2023/03/15 08:55:56;;;;;;;9.82;2.95;;;5.90;99.90;;;;;;4965949;28;20054;-76
2023/03/15 08:58:22;;;;;;;12.40;2.97;;;6.10;99.90;;;;;;4982832;28;20050;-75
2023/03/15 09:00:48;;;;;;;13.10;3.55;;;6.00;99.90;;;;;;4988420;28;20046;-77
2023/03/15 09:03:15;;;;;;;16.58;3.58;;;6.10;99.90;;;;;;4970064;28;20592;-76
2023/03/15 09:05:41;;;;;;;12.43;3.63;;;6.20;99.90;;;;;;4989896;28;20125;-77
2023/03/15 09:08:07;;;;;;;18.83;2.92;;;6.30;99.90;;;;;;4974406;28;20124;-76
2023/03/15 09:10:33;;;;;;;18.85;3.83;;;6.30;99.90;;;;;;4975017;28;20042;-77
2023/03/15 09:12:59;;;;;;;14.77;3.28;;;6.40;99.90;;;;;;4969808;28;20104;-77
2023/03/15 09:15:25;;;;;;;8.18;3.17;;;6.50;99.90;;;;;;4972831;28;20042;-76
2023/03/15 09:17:51;;;;;;;12.00;3.15;;;6.60;99.90;;;;;;4973212;28;20053;-77
2023/03/15 09:20:20;;;;;;;8.38;2.30;;;6.70;99.90;;;;;;4971307;28;20499;-75
2023/03/15 09:22:51;;;;;;;9.38;3.13;;;6.70;99.90;;;;;;4973915;28;20534;-76
2023/03/15 09:25:17;;;;;;;12.75;2.80;;;6.90;99.90;;;;;;4963694;28;20092;-76
2023/03/15 09:27:43;;;;;;;13.77;3.17;;;7.00;99.90;;;;;;4970899;28;20042;-76
2023/03/15 09:30:09;;;;;;;6.95;2.72;;;7.20;99.90;;;;;;4986425;28;20645;-76
2023/03/15 09:32:35;;;;;;;6.35;2.20;;;7.30;99.90;;;;;;4972614;28;20141;-76
2023/03/15 09:35:07;;;;;;;8.18;3.10;;;7.50;99.90;;;;;;4986036;28;20407;-76
2023/03/15 09:37:33;;;;;;;7.85;3.17;;;7.50;99.90;;;;;;4966347;28;20138;-77
2023/03/15 09:40:00;;;;;;;7.15;3.13;;;7.60;99.90;;;;;;4986809;28;20065;-77
2023/03/15 09:42:33;;;;;;;9.43;2.80;;;7.80;99.90;;;;;;4985049;28;20613;-76
2023/03/15 09:45:24;;;;;;;15.80;3.42;;;7.90;99.90;;;;;;4969839;28;20108;-77
2023/03/15 09:48:15;;;;;;;4.88;2.05;;;8.00;99.90;;;;;;4981466;28;20050;-77
2023/03/15 09:50:59;;;;;;;15.10;2.92;;;8.20;99.90;;;;;;4959196;28;20078;-78
2023/03/15 09:53:37;;;;;;;8.95;2.67;;;8.30;99.90;;;;;;4969582;28;20053;-77
2023/03/15 09:56:14;;;;;;;9.57;3.17;;;8.40;99.90;;;;;;4981576;28;20077;-77
2023/03/15 09:58:40;;;;;;;9.88;2.22;;;8.50;99.90;;;;;;4986934;28;20050;-77
2023/03/15 10:01:10;;;;;;;6.05;2.40;;;8.40;99.90;;;;;;4971100;28;20112;-77
2023/03/15 10:03:45;;;;;;;5.95;2.40;;;8.50;99.90;;;;;;4984135;28;20054;-77
2023/03/15 10:06:29;;;;;;;13.77;2.50;;;8.70;99.90;;;;;;4971181;28;20133;-78
2023/03/15 10:08:59;;;;;;;12.38;2.53;;;8.70;99.90;;;;;;4971361;28;20050;-78
2023/03/15 10:11:39;;;;;;;33.13;3.25;;;8.80;99.90;;;;;;4988730;28;20419;-75
2023/03/15 10:14:11;;;;;;;8.57;2.15;;;8.80;99.90;;;;;;4983499;28;20129;-77
2023/03/15 10:16:36;;;;;;;14.00;2.85;;;8.90;99.90;;;;;;4974285;28;20077;-76
2023/03/15 10:19:14;;;;;;;4.60;2.10;;;9.10;99.90;;;;;;4986659;28;20400;-77
2023/03/15 10:21:55;;;;;;;4.20;2.05;;;9.10;99.90;;;;;;4974101;28;20388;-77
2023/03/15 10:24:38;;;;;;;5.55;2.42;;;9.20;99.90;;;;;;4981228;28;20069;-77
2023/03/15 10:27:31;;;;;;;3.63;1.90;;;9.30;99.90;;;;;;4984243;28;20101;-77
2023/03/15 10:29:59;;;;;;;6.18;1.95;;;9.40;99.90;;;;;;4979096;28;20057;-77
2023/03/15 10:32:40;;;;;;;9.27;2.22;;;9.60;99.90;;;;;;4967867;28;20055;-77
2023/03/15 10:35:14;;;;;;;9.65;2.30;;;9.70;99.90;;;;;;4967858;28;20043;-77
2023/03/15 10:37:41;;;;;;;10.02;1.80;;;9.70;96.10;;;;;;4981641;28;20046;-77
2023/03/15 10:40:14;;;;;;;9.45;2.33;;;9.70;97.50;;;;;;4967407;28;20574;-77
2023/03/15 10:42:50;;;;;;;7.68;2.22;;;9.80;94.70;;;;;;4967694;28;20058;-76
2023/03/15 10:45:24;;;;;;;3.63;1.80;;;9.80;89.40;;;;;;4976273;28;20082;-77
2023/03/15 10:47:50;;;;;;;7.10;1.92;;;9.90;93.80;;;;;;4967768;28;20519;-77
2023/03/15 10:50:28;;;;;;;7.40;2.00;;;10.00;94.10;;;;;;4967195;28;20054;-77
2023/03/15 10:53:00;;;;;;;7.43;1.75;;;10.10;93.80;;;;;;4967674;28;20401;-77
2023/03/15 10:55:35;;;;;;;8.57;2.70;;;10.20;99.20;;;;;;4981647;28;20109;-76
2023/03/15 10:58:45;;;;;;;8.25;2.47;;;10.30;99.90;;;;;;4966843;28;20063;-77
2023/03/15 11:01:28;;;;;;;5.30;2.67;;;10.50;93.00;;;;;;4960730;28;20087;-76
2023/03/15 11:04:26;;;;;;;8.25;2.10;;;10.80;99.60;;;;;;4966965;28;20082;-76
2023/03/15 11:07:01;;;;;;;6.00;1.88;;;11.00;81.20;;;;;;4951674;28;20059;-77
2023/03/15 11:09:40;;;;;;;11.57;2.00;;;11.20;83.10;;;;;;4967666;28;20101;-77
2023/03/15 11:12:08;;;;;;;6.40;2.70;;;11.30;82.80;;;;;;4985735;28;20176;-77
2023/03/15 11:14:39;;;;;;;3.78;1.85;;;11.40;83.80;;;;;;4968299;28;20129;-77
2023/03/15 11:17:07;;;;;;;5.82;2.15;;;11.60;87.20;;;;;;4966007;28;20046;-78
2023/03/15 11:19:40;;;;;;;12.18;2.47;;;11.70;86.10;;;;;;4966030;28;20130;-77
2023/03/15 11:22:11;;;;;;;6.85;2.35;;;11.70;80.50;;;;;;4952820;28;20047;-78
2023/03/15 11:24:38;;;;;;;11.35;2.70;;;11.60;76.20;;;;;;4973919;28;20472;-77
2023/03/15 11:27:13;;;;;;;9.60;2.65;;;11.70;77.20;;;;;;4990710;28;20105;-76
2023/03/15 11:29:45;;;;;;;13.10;2.58;;;11.70;75.00;;;;;;4985132;28;20042;-77
2023/03/15 11:32:25;;;;;;;9.07;2.40;;;11.80;77.30;;;;;;4971854;28;20406;-77
2023/03/15 11:35:00;;;;;;;5.60;2.67;;;11.90;77.40;;;;;;4990249;28;20058;-77
2023/03/15 11:37:32;;;;;;;3.97;1.80;;;12.10;78.10;;;;;;4988504;28;20054;-77
2023/03/15 11:40:04;;;;;;;4.38;2.03;;;12.30;74.00;;;;;;4973036;28;20113;-76
2023/03/15 11:42:36;;;;;;;9.02;2.03;;;12.40;74.30;;;;;;4975398;28;20125;-77
2023/03/15 11:45:16;;;;;;;5.45;2.22;;;12.50;74.50;;;;;;4980916;28;20050;-77
2023/03/15 11:47:50;;;;;;;6.25;2.25;;;12.50;70.40;;;;;;4990344;28;20699;-77
2023/03/15 11:50:16;;;;;;;6.97;2.67;;;12.30;68.50;;;;;;4973653;28;20050;-77
2023/03/15 11:52:46;;;;;;;5.68;2.20;;;12.10;70.40;;;;;;4990013;28;20062;-77
2023/03/15 11:55:19;;;;;;;5.88;2.00;;;12.00;73.20;;;;;;4963319;28;20054;-77
2023/03/15 11:57:48;;;;;;;5.65;1.77;;;11.80;72.80;;;;;;4990776;28;20042;-77
2023/03/15 12:00:34;;;;;;;7.38;2.55;;;11.60;71.90;;;;;;4973719;28;20061;-77
2023/03/15 12:03:27;;;;;;;6.38;2.03;;;11.30;69.80;;;;;;4974143;28;20085;-77
2023/03/15 12:06:03;;;;;;;13.45;2.92;;;11.20;71.20;;;;;;4973479;28;20121;-77
2023/03/15 12:08:34;;;;;;;5.75;2.00;;;11.20;71.30;;;;;;4971273;28;20046;-78
2023/03/15 12:11:01;;;;;;;3.85;2.08;;;11.40;69.90;;;;;;4991578;28;20800;-77
2023/03/15 12:13:30;;;;;;;4.57;2.38;;;11.50;71.30;;;;;;4970574;28;20085;-77
2023/03/15 12:15:57;;;;;;;10.57;2.33;;;11.50;70.20;;;;;;4966360;28;20043;-77
2023/03/15 12:18:43;;;;;;;3.58;1.42;;;11.50;68.70;;;;;;4986284;28;20466;-77
2023/03/15 12:21:15;;;;;;;9.43;2.00;;;11.50;68.20;;;;;;4990865;28;20060;-77
2023/03/15 12:23:54;;;;;;;6.38;2.47;;;11.60;67.60;;;;;;4967871;28;20047;-76
2023/03/15 12:26:23;;;;;;;7.47;2.60;;;11.70;68.30;;;;;;4968805;28;20863;-77
2023/03/15 12:29:05;;;;;;;11.93;4.55;;;11.80;67.00;;;;;;4972948;28;20399;-77
2023/03/15 12:32:16;;;;;;;6.88;2.40;;;11.90;67.30;;;;;;4972937;28;20413;-76
2023/03/15 12:34:51;;;;;;;2.55;1.88;;;12.10;66.50;;;;;;4953135;28;20059;-76
2023/03/15 12:37:37;;;;;;;3.92;1.92;;;12.10;65.40;;;;;;4968130;28;20869;-76
2023/03/15 12:40:23;;;;;;;5.97;2.50;;;12.30;66.70;;;;;;4986207;28;20591;-77
2023/03/15 12:42:49;;;;;;;7.38;2.70;;;12.30;65.20;;;;;;4972522;28;20042;-76
2023/03/15 12:45:14;;;;;;;14.15;2.65;;;12.10;64.90;;;;;;4989014;28;20061;-76
2023/03/15 12:47:49;;;;;;;6.60;2.40;;;12.10;65.00;;;;;;4971857;28;20054;-76
2023/03/15 12:50:50;;;;;;;6.18;1.65;;;12.20;65.20;;;;;;4989375;28;20062;-76
2023/03/15 12:53:21;;;;;;;12.48;3.10;;;12.20;64.00;;;;;;4966494;28;20058;-76
2023/03/15 12:55:49;;;;;;;2.38;1.23;;;12.10;64.40;;;;;;4988364;28;20046;-76
2023/03/15 12:58:16;;;;;;;5.20;2.10;;;12.10;64.40;;;;;;4986750;28;20058;-76
2023/03/15 13:00:43;;;;;;;10.10;2.20;;;12.00;65.00;;;;;;4969562;28;20066;-76
2023/03/15 13:03:20;;;;;;;7.00;2.40;;;12.00;64.00;;;;;;4970918;28;20310;-76